createdAt,value
2022-10-15T00:00:45.323Z,1.23
2022-10-15T00:03:12.636Z,1.90
2022-10-15T00:05:40.066Z,1.42
2022-10-15T00:08:07.985Z,1.52
2022-10-15T00:10:35.815Z,1.40
2022-10-15T00:15:37.583Z,1.45
2022-10-15T00:18:04.924Z,2.35
2022-10-15T00:20:32.307Z,1.70
2022-10-15T00:22:59.609Z,1.35
2022-10-15T00:25:26.839Z,2.00
2022-10-15T00:27:54.037Z,0.98
2022-10-15T00:30:21.332Z,1.70
2022-10-15T00:32:48.556Z,1.85
2022-10-15T00:35:15.703Z,0.98
2022-10-15T00:37:44.116Z,1.63
2022-10-15T00:40:12.352Z,1.23
2022-10-15T00:42:39.481Z,0.73
2022-10-15T00:45:07.027Z,1.70
2022-10-15T00:47:42.075Z,0.80
2022-10-15T00:50:23.222Z,1.33
2022-10-15T00:53:04.056Z,1.73
2022-10-15T00:55:32.515Z,0.60
2022-10-15T00:58:14.435Z,1.25
2022-10-15T01:00:41.990Z,2.58
2022-10-15T01:03:09.938Z,1.45
2022-10-15T01:05:38.248Z,1.42
2022-10-15T01:08:05.487Z,1.15
2022-10-15T01:10:49.195Z,0.75
2022-10-15T01:13:24.168Z,1.42
2022-10-15T01:15:58.153Z,1.50
2022-10-15T01:18:38.518Z,0.55
2022-10-15T01:21:10.827Z,2.25
2022-10-15T01:24:03.522Z,1.35
2022-10-15T01:26:53.151Z,1.38
2022-10-15T01:29:26.328Z,2.40
2022-10-15T01:31:59.458Z,1.05
2022-10-15T01:34:35.485Z,1.52
2022-10-15T01:37:09.938Z,1.88
2022-10-15T01:39:42.211Z,1.02
2022-10-15T01:42:21.980Z,1.15
2022-10-15T01:44:51.911Z,1.73
2022-10-15T01:47:25.604Z,1.50
2022-10-15T01:49:54.290Z,1.20
2022-10-15T01:52:24.283Z,1.10
2022-10-15T01:54:52.865Z,0.60
2022-10-15T01:57:21.389Z,1.33
2022-10-15T01:59:48.745Z,1.17
2022-10-15T02:02:16.041Z,1.45
2022-10-15T02:04:43.284Z,0.93
2022-10-15T02:07:10.360Z,1.13
2022-10-15T02:09:49.981Z,0.88
2022-10-15T02:12:17.098Z,1.48
2022-10-15T02:14:51.628Z,2.60
2022-10-15T02:17:20.642Z,0.77
2022-10-15T02:19:53.507Z,0.85
2022-10-15T02:22:25.763Z,1.17
2022-10-15T02:24:55.506Z,0.80
2022-10-15T02:27:23.201Z,0.88
2022-10-15T02:29:52.830Z,1.35
2022-10-15T02:32:21.672Z,1.20
2022-10-15T02:34:50.784Z,1.33
2022-10-15T02:37:20.821Z,1.15
2022-10-15T02:39:48.068Z,2.35
2022-10-15T02:42:16.904Z,1.33
2022-10-15T02:44:44.089Z,3.15
2022-10-15T02:47:11.462Z,1.15
2022-10-15T02:49:38.768Z,1.45
2022-10-15T02:52:06.088Z,1.65
2022-10-15T02:54:33.273Z,1.23
2022-10-15T02:57:00.425Z,1.38
2022-10-15T02:59:27.631Z,1.10
2022-10-15T03:01:54.923Z,1.33
2022-10-15T03:04:22.463Z,1.30
2022-10-15T03:06:49.735Z,2.88
2022-10-15T03:09:17.180Z,1.90
2022-10-15T03:11:44.475Z,1.17
2022-10-15T03:14:12.156Z,1.65
2022-10-15T03:16:39.276Z,1.77
2022-10-15T03:19:06.580Z,2.50
2022-10-15T03:21:33.737Z,1.67
2022-10-15T03:24:00.927Z,0.68
2022-10-15T03:26:28.279Z,1.33
2022-10-15T03:28:55.526Z,1.48
2022-10-15T03:31:22.791Z,1.98
2022-10-15T03:33:50.764Z,1.90
2022-10-15T03:36:17.948Z,0.88
2022-10-15T03:38:45.267Z,2.17
2022-10-15T03:41:12.529Z,2.05
2022-10-15T03:43:42.659Z,1.23
2022-10-15T03:46:10.499Z,2.08
2022-10-15T03:48:37.800Z,1.23
2022-10-15T03:51:05.068Z,1.80
2022-10-15T03:53:32.307Z,2.70
2022-10-15T03:56:06.113Z,3.13
2022-10-15T03:58:33.296Z,2.33
2022-10-15T04:01:00.491Z,2.83
2022-10-15T04:03:27.784Z,2.78
2022-10-15T04:05:55.997Z,1.63
2022-10-15T04:08:24.003Z,1.55
2022-10-15T04:10:52.270Z,3.15
2022-10-15T04:13:19.505Z,2.92
2022-10-15T04:15:46.761Z,3.38
2022-10-15T04:18:14.584Z,2.15
2022-10-15T04:20:42.992Z,2.25
2022-10-15T04:23:10.661Z,1.77
2022-10-15T04:25:38.018Z,2.50
2022-10-15T04:28:05.648Z,2.75
2022-10-15T04:30:32.896Z,2.80
2022-10-15T04:33:00.101Z,1.27
2022-10-15T04:35:27.302Z,1.05
2022-10-15T04:37:54.547Z,2.17
2022-10-15T04:40:21.806Z,1.88
2022-10-15T04:42:48.995Z,2.58
2022-10-15T04:45:16.258Z,1.20
2022-10-15T04:47:43.514Z,1.48
2022-10-15T04:50:11.023Z,2.33
2022-10-15T04:52:38.256Z,2.05
2022-10-15T04:55:05.847Z,2.03
2022-10-15T04:57:33.008Z,1.13
2022-10-15T05:00:00.144Z,3.20
2022-10-15T05:02:27.447Z,1.98
2022-10-15T05:04:54.613Z,3.28
2022-10-15T05:07:22.066Z,2.17
2022-10-15T05:09:49.519Z,2.53
2022-10-15T05:12:16.732Z,3.38
2022-10-15T05:14:43.866Z,2.78
2022-10-15T05:17:11.214Z,1.85
2022-10-15T05:19:38.371Z,1.88
2022-10-15T05:22:05.581Z,2.45
2022-10-15T05:24:32.882Z,1.77
2022-10-15T05:27:02.866Z,2.03
2022-10-15T05:29:30.501Z,1.40
2022-10-15T05:31:57.857Z,2.00
2022-10-15T05:34:26.851Z,2.35
2022-10-15T05:36:53.963Z,3.35
2022-10-15T05:39:21.229Z,1.50
2022-10-15T05:41:49.573Z,1.38
2022-10-15T05:44:16.985Z,1.80
2022-10-15T05:46:44.628Z,1.48
2022-10-15T05:49:11.804Z,1.85
2022-10-15T05:51:39.356Z,1.00
2022-10-15T05:54:06.681Z,2.88
2022-10-15T05:56:33.830Z,1.35
2022-10-15T05:59:01.125Z,1.83
2022-10-15T06:01:28.486Z,1.85
2022-10-15T06:03:55.698Z,1.77
2022-10-15T06:06:25.103Z,1.35
2022-10-15T06:08:52.861Z,0.68
2022-10-15T06:11:20.649Z,2.85
2022-10-15T06:13:47.896Z,1.85
2022-10-15T06:16:19.387Z,1.73
2022-10-15T06:18:50.125Z,1.67
2022-10-15T06:21:17.425Z,2.55
2022-10-15T06:23:45.632Z,1.40
2022-10-15T06:26:12.871Z,1.17
2022-10-15T06:28:40.222Z,1.95
2022-10-15T06:31:08.088Z,2.05
2022-10-15T06:33:35.456Z,1.80
2022-10-15T06:36:03.710Z,2.55
2022-10-15T06:38:30.946Z,2.85
2022-10-15T06:40:58.214Z,0.95
2022-10-15T06:43:25.531Z,2.67
2022-10-15T06:45:52.795Z,2.25
2022-10-15T06:48:19.932Z,1.10
2022-10-15T06:50:47.271Z,2.63
2022-10-15T06:53:14.566Z,2.58
2022-10-15T06:55:41.718Z,1.90
2022-10-15T06:58:08.931Z,1.75
2022-10-15T07:03:08.359Z,1.83
2022-10-15T07:05:35.975Z,2.17
2022-10-15T07:08:03.229Z,1.45
2022-10-15T07:10:30.828Z,1.10
2022-10-15T07:13:00.684Z,1.38
2022-10-15T07:15:28.256Z,2.22
2022-10-15T07:18:01.969Z,1.33
2022-10-15T07:20:30.348Z,1.58
2022-10-15T07:23:01.291Z,1.38
2022-10-15T07:25:28.885Z,1.30
2022-10-15T07:27:56.906Z,1.55
2022-10-15T07:30:27.312Z,0.82
2022-10-15T07:32:56.060Z,1.35
2022-10-15T07:35:23.412Z,1.63
2022-10-15T07:37:50.845Z,0.63
2022-10-15T07:40:18.774Z,1.90
2022-10-15T07:42:45.994Z,1.10
2022-10-15T07:45:13.220Z,0.95
2022-10-15T07:47:42.258Z,0.93
2022-10-15T07:50:09.624Z,1.05
2022-10-15T07:52:36.921Z,0.75
2022-10-15T07:55:04.334Z,0.55
2022-10-15T07:57:31.527Z,0.70
2022-10-15T07:59:58.797Z,0.30
2022-10-15T08:02:26.397Z,0.65
2022-10-15T08:04:53.935Z,0.93
2022-10-15T08:07:21.186Z,1.33
2022-10-15T08:09:48.894Z,0.82
2022-10-15T08:12:16.087Z,1.23
2022-10-15T08:14:43.280Z,0.60
2022-10-15T08:17:14.809Z,0.77
2022-10-15T08:19:41.956Z,1.17
2022-10-15T08:22:09.275Z,0.40
2022-10-15T08:24:36.576Z,0.82
2022-10-15T08:27:03.728Z,0.35
2022-10-15T08:29:30.997Z,0.40
2022-10-15T08:31:58.161Z,1.38
2022-10-15T08:34:25.705Z,0.40
2022-10-15T08:36:52.980Z,1.10
2022-10-15T08:39:20.405Z,0.50
2022-10-15T08:41:49.619Z,0.30
2022-10-15T08:44:23.500Z,1.13
2022-10-15T08:46:53.353Z,0.45
2022-10-15T08:49:32.746Z,0.20
2022-10-15T08:52:04.783Z,0.52
2022-10-15T08:54:35.575Z,1.08
2022-10-15T08:57:11.896Z,0.20
2022-10-15T08:59:44.951Z,0.43
2022-10-15T09:02:20.182Z,0.55
2022-10-15T09:04:50.795Z,0.20
2022-10-15T09:07:27.075Z,1.05
2022-10-15T09:10:02.251Z,1.33
2022-10-15T09:12:48.242Z,0.28
2022-10-15T09:15:18.492Z,0.20
2022-10-15T09:17:47.741Z,0.45
2022-10-15T09:20:24.236Z,0.05
2022-10-15T09:22:52.101Z,0.30
2022-10-15T09:25:20.727Z,0.90
2022-10-15T09:27:49.055Z,0.05
2022-10-15T09:30:19.451Z,0.32
2022-10-15T09:32:51.972Z,0.45
2022-10-15T09:35:25.169Z,0.00
2022-10-15T09:38:04.865Z,0.30
2022-10-15T09:40:35.850Z,0.30
2022-10-15T09:43:03.616Z,0.50
2022-10-15T09:45:31.220Z,0.22
2022-10-15T09:48:00.288Z,0.57
2022-10-15T09:50:31.638Z,1.08
2022-10-15T09:53:04.882Z,0.20
2022-10-15T09:55:50.747Z,0.20
2022-10-15T09:58:24.212Z,0.30
2022-10-15T10:00:58.713Z,0.13
2022-10-15T10:03:27.210Z,0.85
2022-10-15T10:06:05.479Z,0.17
2022-10-15T10:08:59.369Z,0.20
2022-10-15T10:11:27.322Z,0.17
2022-10-15T10:13:54.670Z,0.00
2022-10-15T10:16:22.431Z,0.20
2022-10-15T10:19:08.306Z,0.10
2022-10-15T10:21:37.375Z,0.30
2022-10-15T10:24:23.651Z,0.20
2022-10-15T10:26:51.101Z,0.00
2022-10-15T10:29:33.565Z,0.20
2022-10-15T10:32:10.269Z,0.13
2022-10-15T10:34:37.551Z,0.35
2022-10-15T10:37:06.637Z,0.10
2022-10-15T10:39:36.321Z,0.00
2022-10-15T10:42:20.027Z,0.10
2022-10-15T10:44:47.213Z,0.38
2022-10-15T10:47:18.883Z,0.10
2022-10-15T10:49:47.659Z,0.20
2022-10-15T10:52:31.602Z,0.03
2022-10-15T10:55:00.919Z,0.10
2022-10-15T10:57:33.758Z,0.10
2022-10-15T11:00:01.903Z,0.30
2022-10-15T11:02:29.117Z,0.00
2022-10-15T11:04:56.351Z,0.03
2022-10-15T11:07:40.725Z,0.00
2022-10-15T11:10:19.755Z,0.10
2022-10-15T11:12:46.904Z,0.00
2022-10-15T11:15:21.792Z,0.08
2022-10-15T11:17:58.260Z,0.10
2022-10-15T11:20:42.959Z,0.05
2022-10-15T11:23:23.742Z,0.00
2022-10-15T11:26:02.961Z,0.20
2022-10-15T11:28:35.726Z,0.10
2022-10-15T11:31:06.329Z,0.90
2022-10-15T11:33:42.704Z,0.00
2022-10-15T11:36:09.895Z,0.00
2022-10-15T11:38:46.474Z,0.00
2022-10-15T11:41:27.461Z,0.32
2022-10-15T11:44:09.615Z,0.75
2022-10-15T11:47:12.232Z,0.10
2022-10-15T11:50:03.609Z,0.20
2022-10-15T11:52:33.698Z,0.50
2022-10-15T11:55:03.773Z,0.05
2022-10-15T11:57:33.190Z,0.10
2022-10-15T12:00:18.990Z,0.20
2022-10-15T12:02:46.195Z,0.20
2022-10-15T12:05:27.843Z,0.08
2022-10-15T12:07:55.838Z,0.10
2022-10-15T12:10:49.699Z,0.75
2022-10-15T12:13:21.603Z,0.20
2022-10-15T12:15:54.463Z,0.00
2022-10-15T12:18:26.167Z,1.00
2022-10-15T12:20:58.746Z,0.00
2022-10-15T12:23:28.096Z,0.00
2022-10-15T12:25:55.358Z,0.20
2022-10-15T12:28:24.340Z,0.10
2022-10-15T12:30:58.719Z,0.10
2022-10-15T12:33:40.281Z,0.10
2022-10-15T12:36:16.373Z,0.10
2022-10-15T12:38:51.436Z,0.25
2022-10-15T12:41:18.624Z,0.10
2022-10-15T12:43:49.471Z,0.00
2022-10-15T12:46:16.958Z,0.00
2022-10-15T12:48:45.557Z,0.20
2022-10-15T12:51:31.453Z,0.20
2022-10-15T12:54:00.457Z,0.00
2022-10-15T12:56:39.471Z,0.10
2022-10-15T12:59:26.570Z,0.10
2022-10-15T13:01:53.777Z,0.00
2022-10-15T13:04:21.095Z,0.10
2022-10-15T13:06:48.548Z,0.10
2022-10-15T13:09:23.617Z,0.10
2022-10-15T13:14:43.012Z,0.10
2022-10-15T13:17:18.758Z,0.10
2022-10-15T13:19:48.997Z,0.10
2022-10-15T13:22:30.022Z,0.00
2022-10-15T13:24:57.857Z,0.03
2022-10-15T13:27:32.601Z,0.00
2022-10-15T13:30:01.226Z,0.10
2022-10-15T13:32:29.579Z,0.20
2022-10-15T13:34:57.592Z,0.10
2022-10-15T13:37:32.839Z,0.08
2022-10-15T13:40:03.244Z,0.00
2022-10-15T13:42:34.040Z,0.00
2022-10-15T13:45:03.197Z,0.00
2022-10-15T13:47:38.191Z,0.20
2022-10-15T13:50:31.562Z,0.20
2022-10-15T13:53:08.015Z,0.10
2022-10-15T13:55:36.892Z,0.20
2022-10-15T13:58:05.725Z,0.00
2022-10-15T14:00:37.139Z,0.10
2022-10-15T14:03:18.621Z,0.75
2022-10-15T14:05:47.079Z,0.55
2022-10-15T14:08:20.622Z,0.00
2022-10-15T14:10:48.490Z,0.00
2022-10-15T14:13:15.979Z,0.00
2022-10-15T14:15:49.539Z,0.10
2022-10-15T14:18:18.101Z,0.10
2022-10-15T14:20:47.058Z,0.00
2022-10-15T14:23:32.297Z,0.38
2022-10-15T14:26:00.871Z,0.00
2022-10-15T14:28:28.914Z,0.40
2022-10-15T14:30:56.594Z,0.00
2022-10-15T14:33:33.041Z,0.15
2022-10-15T14:36:08.433Z,0.00
2022-10-15T14:38:35.992Z,0.28
2022-10-15T14:41:07.736Z,0.00
2022-10-15T14:43:35.874Z,0.00
2022-10-15T14:46:05.309Z,0.10
2022-10-15T14:48:34.448Z,0.00
2022-10-15T14:51:04.070Z,0.05
2022-10-15T14:53:39.357Z,0.00
2022-10-15T14:56:10.645Z,0.00
2022-10-15T14:58:39.015Z,0.17
2022-10-15T15:01:07.975Z,0.00
2022-10-15T15:03:42.622Z,0.00
2022-10-15T15:06:10.268Z,0.10
2022-10-15T15:08:37.417Z,0.00
2022-10-15T15:11:06.163Z,0.00
2022-10-15T15:13:38.657Z,0.00
2022-10-15T15:16:06.058Z,0.00
2022-10-15T15:18:33.764Z,0.00
2022-10-15T15:21:03.205Z,0.00
2022-10-15T15:23:30.588Z,0.03
2022-10-15T15:25:57.756Z,0.00
2022-10-15T15:28:26.002Z,0.32
2022-10-15T15:31:00.810Z,0.00
2022-10-15T15:33:28.488Z,0.10
2022-10-15T15:36:03.591Z,0.68
2022-10-15T15:38:31.495Z,0.00
2022-10-15T15:41:02.019Z,0.00
2022-10-15T15:43:29.346Z,0.00
2022-10-15T15:45:56.548Z,0.08
2022-10-15T15:48:23.694Z,0.00
2022-10-15T15:50:50.946Z,0.10
2022-10-15T15:53:18.245Z,0.10
2022-10-15T15:55:45.406Z,0.00
2022-10-15T15:58:12.653Z,0.00
2022-10-15T16:00:39.888Z,0.03
2022-10-15T16:03:08.754Z,0.05
2022-10-15T16:05:36.372Z,0.20
2022-10-15T16:08:03.665Z,0.00
2022-10-15T16:10:30.836Z,0.65
2022-10-15T16:12:58.156Z,0.00
2022-10-15T16:15:25.407Z,0.00
2022-10-15T16:17:54.063Z,0.20
2022-10-15T16:20:21.624Z,0.10
2022-10-15T16:22:52.458Z,0.00
2022-10-15T16:25:20.479Z,0.10
2022-10-15T16:27:51.960Z,0.40
2022-10-15T16:30:19.688Z,0.17
2022-10-15T16:32:46.855Z,0.30
2022-10-15T16:35:14.086Z,0.00
2022-10-15T16:37:41.389Z,0.45
2022-10-15T16:40:08.969Z,0.60
2022-10-15T16:42:36.104Z,0.30
2022-10-15T16:45:03.516Z,0.15
2022-10-15T16:47:30.703Z,0.52
2022-10-15T16:49:57.834Z,0.40
2022-10-15T16:52:25.278Z,0.30
2022-10-15T16:54:52.625Z,0.10
2022-10-15T16:57:19.818Z,0.47
2022-10-15T16:59:46.955Z,0.10
2022-10-15T17:02:14.153Z,0.13
2022-10-15T17:04:41.265Z,0.10
2022-10-15T17:07:08.538Z,0.20
2022-10-15T17:09:35.903Z,0.10
2022-10-15T17:12:03.189Z,0.40
2022-10-15T17:14:30.443Z,0.45
2022-10-15T17:16:57.619Z,0.10
2022-10-15T17:19:28.961Z,0.00
2022-10-15T17:21:59.920Z,0.43
2022-10-15T17:24:27.205Z,0.20
2022-10-15T17:26:54.803Z,0.35
2022-10-15T17:29:26.559Z,1.95
2022-10-15T17:31:56.508Z,0.40
2022-10-15T17:34:24.019Z,0.52
2022-10-15T17:36:52.360Z,0.30
2022-10-15T17:39:22.499Z,0.28
2022-10-15T17:41:50.862Z,0.22
2022-10-15T17:44:18.152Z,0.35
2022-10-15T17:46:45.566Z,0.10
2022-10-15T17:49:18.034Z,0.40
2022-10-15T17:51:45.753Z,0.32
2022-10-15T17:54:13.042Z,1.15
2022-10-15T17:56:40.274Z,0.25
2022-10-15T17:59:08.770Z,0.30
2022-10-15T18:04:24.867Z,0.90
2022-10-15T18:06:52.258Z,0.10
2022-10-15T18:09:19.502Z,0.47
2022-10-15T18:11:48.604Z,0.10
2022-10-15T18:14:16.062Z,0.25
2022-10-15T18:16:43.956Z,0.20
2022-10-15T18:19:11.410Z,0.20
2022-10-15T18:21:38.605Z,0.10
2022-10-15T18:24:05.809Z,0.22
2022-10-15T18:26:33.036Z,0.15
2022-10-15T18:29:00.302Z,0.55
2022-10-15T18:31:27.736Z,0.30
2022-10-15T18:33:56.627Z,0.17
2022-10-15T18:36:30.370Z,0.20
2022-10-15T18:38:58.374Z,0.10
2022-10-15T18:41:28.031Z,0.10
2022-10-15T18:43:56.439Z,0.10
2022-10-15T18:46:23.833Z,0.17
2022-10-15T18:48:51.279Z,0.30
2022-10-15T18:51:18.722Z,0.38
2022-10-15T18:53:46.230Z,1.33
2022-10-15T18:56:13.996Z,0.35
2022-10-15T18:58:44.710Z,0.73
2022-10-15T19:01:14.845Z,0.70
2022-10-15T19:03:42.078Z,0.30
2022-10-15T19:06:09.354Z,0.13
2022-10-15T19:08:37.098Z,0.20
2022-10-15T19:11:05.179Z,0.17
2022-10-15T19:13:32.331Z,0.17
2022-10-15T19:16:01.244Z,0.60
2022-10-15T19:18:28.518Z,0.40
2022-10-15T19:20:55.680Z,0.30
2022-10-15T19:23:23.095Z,0.00
2022-10-15T19:25:50.399Z,0.40
2022-10-15T19:28:17.865Z,0.20
2022-10-15T19:30:45.515Z,0.68
2022-10-15T19:33:12.914Z,0.47
2022-10-15T19:35:44.572Z,0.52
2022-10-15T19:38:12.605Z,0.13
2022-10-15T19:40:40.057Z,0.30
2022-10-15T19:43:07.598Z,0.43
2022-10-15T19:45:38.780Z,0.35
2022-10-15T19:48:06.636Z,0.52
2022-10-15T19:50:37.224Z,0.43
2022-10-15T19:53:04.724Z,0.20
2022-10-15T19:55:31.880Z,0.10
2022-10-15T19:57:59.196Z,1.02
2022-10-15T20:00:26.582Z,0.75
2022-10-15T20:02:54.078Z,0.15
2022-10-15T20:05:21.542Z,0.10
2022-10-15T20:07:48.822Z,0.35
2022-10-15T20:10:16.002Z,0.00
2022-10-15T20:12:43.256Z,0.73
2022-10-15T20:15:10.701Z,0.43
2022-10-15T20:17:37.967Z,0.30
2022-10-15T20:20:05.988Z,0.40
2022-10-15T20:22:33.296Z,0.20
2022-10-15T20:25:00.493Z,0.60
2022-10-15T20:27:27.653Z,0.10
2022-10-15T20:29:54.876Z,0.15
2022-10-15T20:32:34.333Z,0.90
2022-10-15T20:35:02.584Z,0.10
2022-10-15T20:37:29.777Z,0.20
2022-10-15T20:42:30.179Z,1.08
2022-10-15T20:44:57.407Z,0.40
2022-10-15T20:47:24.881Z,1.63
2022-10-15T20:49:54.131Z,0.32
2022-10-15T20:52:22.516Z,0.40
2022-10-15T20:54:50.499Z,0.57
2022-10-15T20:57:17.835Z,0.43
2022-10-15T20:59:44.940Z,0.22
2022-10-15T21:02:12.137Z,0.10
2022-10-15T21:04:39.503Z,0.20
2022-10-15T21:07:06.679Z,0.28
2022-10-15T21:09:33.884Z,0.50
2022-10-15T21:12:01.261Z,0.13
2022-10-15T21:14:28.437Z,0.47
2022-10-15T21:16:55.698Z,0.40
2022-10-15T21:19:22.980Z,0.30
2022-10-15T21:21:50.478Z,0.68
2022-10-15T21:24:17.723Z,0.20
2022-10-15T21:26:44.919Z,0.15
2022-10-15T21:29:16.316Z,0.52
2022-10-15T21:31:44.322Z,0.20
2022-10-15T21:34:11.545Z,1.45
2022-10-15T21:36:38.699Z,0.25
2022-10-15T21:39:06.875Z,0.30
2022-10-15T21:41:35.044Z,0.10
2022-10-15T21:44:02.687Z,0.32
2022-10-15T21:46:31.322Z,0.43
2022-10-15T21:48:58.978Z,0.82
2022-10-15T21:51:30.615Z,0.40
2022-10-15T21:53:58.733Z,1.52
2022-10-15T21:56:26.095Z,0.35
2022-10-15T21:58:54.584Z,0.30
2022-10-15T22:01:23.470Z,0.35
2022-10-15T22:03:51.561Z,0.88
2022-10-15T22:06:19.750Z,0.15
2022-10-15T22:08:47.618Z,0.17
2022-10-15T22:11:17.755Z,0.55
2022-10-15T22:13:45.906Z,0.68
2022-10-15T22:16:14.106Z,0.17
2022-10-15T22:18:41.855Z,0.10
2022-10-15T22:21:15.665Z,0.10
2022-10-15T22:23:44.110Z,1.00
2022-10-15T22:26:11.635Z,0.10
2022-10-15T22:28:38.912Z,0.50
2022-10-15T22:31:06.949Z,0.68
2022-10-15T22:33:34.524Z,0.80
2022-10-15T22:36:05.837Z,0.25
2022-10-15T22:38:33.140Z,0.65
2022-10-15T22:41:01.495Z,0.20
2022-10-15T22:43:28.653Z,0.30
2022-10-15T22:45:59.871Z,0.10
2022-10-15T22:48:27.449Z,1.25
2022-10-15T22:50:58.290Z,0.45
2022-10-15T22:53:25.642Z,1.23
2022-10-15T22:55:56.891Z,0.38
2022-10-15T22:58:24.884Z,0.65
2022-10-15T23:00:52.405Z,1.10
2022-10-15T23:03:20.070Z,0.65
2022-10-15T23:05:54.013Z,1.25
2022-10-15T23:08:22.111Z,0.35
2022-10-15T23:10:49.481Z,0.25
2022-10-15T23:13:16.860Z,0.30
2022-10-15T23:15:44.037Z,0.73
2022-10-15T23:18:11.249Z,0.65
2022-10-15T23:20:38.726Z,0.68
2022-10-15T23:23:06.678Z,2.00
2022-10-15T23:25:40.047Z,1.00
2022-10-15T23:28:07.294Z,0.10
2022-10-15T23:30:34.474Z,1.48
2022-10-15T23:33:03.104Z,0.38
2022-10-15T23:35:30.286Z,0.10
2022-10-15T23:37:57.668Z,0.40
2022-10-15T23:40:24.918Z,0.55
2022-10-15T23:42:52.100Z,0.20
2022-10-15T23:45:19.316Z,0.15
2022-10-15T23:47:48.389Z,0.10
2022-10-15T23:50:15.558Z,0.30
2022-10-15T23:52:42.750Z,0.25
2022-10-15T23:55:10.003Z,0.52
2022-10-15T23:57:37.279Z,0.20
